Time;durP1;ratioP1;P1;durP2;ratioP2;P2;SDS_P1;SDS_P2;PMS_P1;PMS_P2;Temp;Humidity;BMP_temperature;BMP_pressure;BME280_temperature;BME280_humidity;BME280_pressure;Samples;Min_cycle;Max_cycle;Signal;HPM_P1;HPM_P2
2024/02/12 00:01:38;;;;;;;7.22;1.30;;;;;;;8.22;100.00;91969.44;5072507;28;20052;-76
2024/02/12 00:04:07;;;;;;;4.65;1.10;;;;;;;8.22;100.00;91972.00;5080300;28;20155;-76
2024/02/12 00:06:34;;;;;;;7.72;1.60;;;;;;;8.15;100.00;91966.25;5069721;28;20098;-76
2024/02/12 00:09:03;;;;;;;4.85;1.00;;;;;;;8.15;100.00;91964.44;5079954;28;20050;-76
2024/02/12 00:11:30;;;;;;;5.30;1.20;;;;;;;8.15;100.00;91958.56;5079001;28;20052;-76
2024/02/12 00:13:57;;;;;;;4.57;1.13;;;;;;;8.15;100.00;91951.66;5072719;28;20052;-76
2024/02/12 00:16:25;;;;;;;7.03;1.73;;;;;;;8.19;100.00;91925.63;5075248;28;20054;-76
2024/02/12 00:18:52;;;;;;;4.40;1.27;;;;;;;8.22;100.00;91925.16;5079376;28;20047;-76
2024/02/12 00:21:19;;;;;;;8.80;1.25;;;;;;;8.22;100.00;91918.28;5070918;28;20119;-76
2024/02/12 00:23:46;;;;;;;6.97;1.90;;;;;;;8.29;100.00;91918.16;5070194;28;20075;-76
2024/02/12 00:26:15;;;;;;;5.50;1.20;;;;;;;8.25;100.00;91911.94;5075941;28;20508;-77
2024/02/12 00:28:42;;;;;;;1.58;0.60;;;;;;;8.14;100.00;91903.28;5072197;28;20142;-77
2024/02/12 00:31:12;;;;;;;5.03;0.77;;;;;;;8.04;100.00;91900.56;5071971;28;20091;-76
2024/02/12 00:33:40;;;;;;;3.63;0.80;;;;;;;8.09;100.00;91906.53;5076931;28;20496;-75
2024/02/12 00:36:09;;;;;;;2.95;0.60;;;;;;;7.99;100.00;91898.66;5076593;28;20744;-76
2024/02/12 00:38:39;;;;;;;6.45;1.00;;;;;;;7.97;100.00;91890.44;5070493;28;20397;-76
2024/02/12 00:41:06;;;;;;;2.72;0.88;;;;;;;7.91;100.00;91896.47;5074126;28;20040;-77
2024/02/12 00:43:34;;;;;;;1.48;0.45;;;;;;;7.79;100.00;91897.25;5072389;28;20036;-77
2024/02/12 00:46:01;;;;;;;1.70;0.50;;;;;;;7.82;100.00;91898.59;5070556;28;20055;-76
2024/02/12 00:48:29;;;;;;;1.25;0.50;;;;;;;7.81;100.00;91886.78;5068913;28;20443;-76
2024/02/12 00:50:55;;;;;;;1.27;0.32;;;;;;;7.73;100.00;91890.50;5073431;28;20067;-76
2024/02/12 00:53:24;;;;;;;0.85;0.20;;;;;;;7.71;100.00;91895.81;5073104;28;20416;-76
2024/02/12 00:55:50;;;;;;;1.00;0.20;;;;;;;7.63;100.00;91891.03;5076345;28;20134;-76
2024/02/12 00:58:18;;;;;;;0.82;0.40;;;;;;;7.33;100.00;91867.16;5069763;28;21169;-76
2024/02/12 01:00:46;;;;;;;0.52;0.30;;;;;;;7.54;100.00;91900.81;5069355;28;20049;-76
2024/02/12 01:03:14;;;;;;;1.13;0.50;;;;;;;7.41;100.00;91878.81;5071028;28;20814;-77
2024/02/12 01:05:42;;;;;;;3.10;0.82;;;;;;;7.54;100.00;91893.16;5072554;28;20044;-76
2024/02/12 01:08:09;;;;;;;1.10;0.40;;;;;;;7.44;100.00;91873.28;5072298;28;20048;-77
2024/02/12 01:10:36;;;;;;;1.15;0.30;;;;;;;7.42;100.00;91865.06;5073449;28;20054;-78
2024/02/12 01:13:03;;;;;;;0.93;0.50;;;;;;;7.16;100.00;91850.97;5071454;28;20045;-77
2024/02/12 01:15:31;;;;;;;2.72;0.47;;;;;;;7.05;100.00;91866.03;5068402;28;20120;-76
2024/02/12 01:17:59;;;;;;;1.30;0.30;;;;;;;7.12;100.00;91858.28;5075071;28;20044;-76
2024/02/12 01:20:26;;;;;;;1.10;0.40;;;;;;;7.16;100.00;91867.06;5072206;28;20132;-77
2024/02/12 01:22:55;;;;;;;2.25;0.30;;;;;;;7.08;100.00;91860.50;5068763;28;20509;-77
2024/02/12 01:25:22;;;;;;;2.05;0.52;;;;;;;7.01;100.00;91864.94;5071441;28;20440;-76
2024/02/12 01:27:50;;;;;;;2.00;0.50;;;;;;;6.98;100.00;91862.06;5075370;28;20617;-76
2024/02/12 01:30:17;;;;;;;3.53;0.45;;;;;;;7.02;100.00;91870.81;5077227;28;20059;-76
2024/02/12 01:32:44;;;;;;;2.20;0.40;;;;;;;6.95;100.00;91870.94;5080363;28;20409;-76
2024/02/12 01:35:13;;;;;;;2.13;0.40;;;;;;;6.89;100.00;91864.16;5076800;28;20051;-76
2024/02/12 01:37:41;;;;;;;2.03;0.50;;;;;;;7.02;100.00;91869.06;5071572;28;20488;-76
2024/02/12 01:40:09;;;;;;;2.55;0.60;;;;;;;6.89;100.00;91864.94;5072519;28;20127;-76
2024/02/12 01:42:37;;;;;;;2.05;0.47;;;;;;;6.93;100.00;91871.16;5071061;28;20049;-76
2024/02/12 01:45:11;;;;;;;3.58;0.63;;;;;;;7.01;100.00;91861.59;5078393;28;20496;-76
2024/02/12 01:47:38;;;;;;;4.07;0.60;;;;;;;7.03;100.00;91859.63;5078661;28;20048;-76
2024/02/12 01:50:07;;;;;;;3.05;0.70;;;;;;;7.05;100.00;91852.50;5067472;28;20508;-76
2024/02/12 01:52:36;;;;;;;4.70;0.90;;;;;;;6.99;100.00;91861.81;5070669;28;20045;-76
2024/02/12 01:55:04;;;;;;;4.55;0.80;;;;;;;7.02;100.00;91856.28;5075985;28;20048;-76
2024/02/12 01:57:31;;;;;;;4.60;1.00;;;;;;;6.97;100.00;91850.28;5069675;28;20045;-76
2024/02/12 02:00:00;;;;;;;5.20;1.17;;;;;;;6.81;100.00;91844.84;5065570;28;20055;-77
2024/02/12 02:02:27;;;;;;;4.30;0.82;;;;;;;6.83;100.00;91842.84;5069920;28;20123;-76
2024/02/12 02:04:54;;;;;;;4.45;0.60;;;;;;;6.76;100.00;91839.63;5073385;28;20439;-76
2024/02/12 02:07:21;;;;;;;4.25;1.08;;;;;;;6.76;100.00;91830.16;5076990;28;20056;-76
2024/02/12 02:09:51;;;;;;;4.45;1.10;;;;;;;6.51;100.00;91804.84;5071350;28;20044;-76
2024/02/12 02:12:18;;;;;;;5.00;0.90;;;;;;;6.63;100.00;91831.16;5072117;28;20063;-76
2024/02/12 02:14:46;;;;;;;3.17;1.15;;;;;;;6.29;100.00;91813.00;5069415;28;20044;-76
2024/02/12 02:17:13;;;;;;;2.55;0.70;;;;;;;6.24;100.00;91816.22;5070976;28;20056;-76
2024/02/12 02:19:41;;;;;;;2.88;0.77;;;;;;;6.29;100.00;91810.44;5071650;28;20090;-76
2024/02/12 02:22:08;;;;;;;2.15;0.55;;;;;;;6.37;100.00;91799.94;5071388;28;20099;-76
2024/02/12 02:24:37;;;;;;;3.15;0.50;;;;;;;6.44;100.00;91807.50;5067618;28;20060;-76
2024/02/12 02:27:06;;;;;;;2.53;0.70;;;;;;;6.36;100.00;91805.25;5081671;28;20504;-76
2024/02/12 02:29:33;;;;;;;4.38;0.50;;;;;;;6.28;100.00;91806.34;5067532;28;20048;-76
2024/02/12 02:32:00;;;;;;;4.88;0.50;;;;;;;6.07;100.00;91774.47;5072202;28;20550;-74
2024/02/12 02:34:27;;;;;;;3.17;0.30;;;;;;;6.27;100.00;91812.44;5074903;28;20951;-75
2024/02/12 02:36:54;;;;;;;1.58;0.30;;;;;;;6.37;100.00;91815.25;5068859;28;20397;-76
2024/02/12 02:39:21;;;;;;;1.13;0.45;;;;;;;6.45;100.00;91829.47;5069484;28;20496;-76
2024/02/12 02:41:51;;;;;;;2.78;1.20;;;;;;;6.40;100.00;91821.69;5069348;28;20045;-76
2024/02/12 02:44:19;;;;;;;2.15;0.63;;;;;;;6.30;100.00;91803.59;5073582;28;20131;-75
2024/02/12 02:46:46;;;;;;;4.80;0.65;;;;;;;6.35;100.00;91773.09;5075496;28;20040;-76
2024/02/12 02:49:14;;;;;;;2.35;0.50;;;;;;;6.33;100.00;91775.06;5071631;28;20079;-76
2024/02/12 02:51:41;;;;;;;4.75;1.23;;;;;;;6.46;100.00;91774.09;5071233;28;20048;-76
2024/02/12 02:54:09;;;;;;;10.63;1.55;;;;;;;6.48;100.00;91760.13;5069235;28;20080;-76
2024/02/12 02:56:36;;;;;;;6.68;1.55;;;;;;;6.54;100.00;91766.16;5067545;28;20078;-76
2024/02/12 02:59:05;;;;;;;10.13;1.20;;;;;;;6.58;100.00;91759.63;5073821;28;20041;-76
2024/02/12 03:01:33;;;;;;;7.28;1.35;;;;;;;6.63;100.00;91766.59;5075013;28;20046;-76
2024/02/12 03:04:00;;;;;;;13.52;1.90;;;;;;;6.68;100.00;91764.91;5070845;28;20053;-76
2024/02/12 03:06:27;;;;;;;8.85;2.15;;;;;;;6.75;100.00;91764.06;5082162;28;20050;-76
2024/02/12 03:08:55;;;;;;;8.25;1.90;;;;;;;6.79;100.00;91749.84;5072644;28;20506;-77
2024/02/12 03:11:24;;;;;;;6.53;1.80;;;;;;;6.80;100.00;91741.19;5070925;28;20067;-76
2024/02/12 03:13:51;;;;;;;11.25;2.70;;;;;;;6.96;100.00;91739.75;5073256;28;20571;-76
2024/02/12 03:16:21;;;;;;;12.57;3.78;;;;;;;6.93;100.00;91727.41;5080502;28;20056;-76
2024/02/12 03:18:48;;;;;;;13.15;2.17;;;;;;;6.99;100.00;91735.97;5070837;28;20095;-75
2024/02/12 03:21:20;;;;;;;17.27;2.60;;;;;;;6.85;100.00;91713.22;5075297;28;20045;-76
2024/02/12 03:23:48;;;;;;;15.63;2.85;;;;;;;6.91;100.00;91707.22;5071609;28;20417;-75
2024/02/12 03:26:15;;;;;;;20.08;2.92;;;;;;;6.97;100.00;91674.91;5075741;28;20059;-75
2024/02/12 03:28:43;;;;;;;25.67;7.53;;;;;;;6.92;100.00;91657.72;5072303;28;20137;-75
2024/02/12 03:31:10;;;;;;;19.95;3.10;;;;;;;6.97;100.00;91649.38;5073159;28;20052;-75
2024/02/12 03:33:42;;;;;;;24.77;7.72;;;;;;;7.07;100.00;91662.34;5073624;28;20484;-75
2024/02/12 03:36:10;;;;;;;23.48;8.93;;;;;;;7.19;100.00;91664.09;5073756;28;20059;-75
2024/02/12 03:38:38;;;;;;;22.70;6.93;;;;;;;7.33;100.00;91660.25;5073983;28;20055;-75
2024/02/12 03:41:05;;;;;;;18.25;5.57;;;;;;;7.37;100.00;91649.59;5079481;28;20168;-75
2024/02/12 03:43:32;;;;;;;24.77;9.23;;;;;;;7.52;100.00;91654.97;5072305;28;20044;-75
2024/02/12 03:45:59;;;;;;;105.10;56.55;;;;;;;7.38;100.00;91616.16;5074603;28;20055;-75
2024/02/12 03:59:53;;;;;;;15.68;5.22;;;;;;;6.54;100.00;91554.41;5051959;28;20071;-75
2024/02/12 04:02:21;;;;;;;44.00;13.77;;;;;;;6.88;100.00;91597.91;5072140;28;20074;-75
2024/02/12 04:04:49;;;;;;;88.65;37.15;;;;;;;7.03;100.00;91642.63;5076381;28;20477;-75
2024/02/12 04:07:17;;;;;;;116.45;45.08;;;;;;;7.13;100.00;91673.44;5072775;28;20080;-75
2024/02/12 04:09:44;;;;;;;253.85;121.40;;;;;;;7.18;100.00;91673.53;5073011;28;20045;-75
2024/02/12 04:12:12;;;;;;;86.32;36.22;;;;;;;7.21;100.00;91688.41;5075404;28;20833;-75
2024/02/12 04:14:42;;;;;;;51.83;19.00;;;;;;;7.24;100.00;91701.72;5074002;28;20060;-75
2024/02/12 04:17:09;;;;;;;32.80;8.70;;;;;;;7.02;100.00;91710.75;5075719;28;20040;-75
2024/02/12 04:19:36;;;;;;;37.50;14.55;;;;;;;7.03;100.00;91689.34;5072510;28;20491;-75
2024/02/12 04:22:04;;;;;;;32.80;9.18;;;;;;;7.16;100.00;91713.84;5071207;28;20040;-76
2024/02/12 04:24:37;;;;;;;18.40;4.28;;;;;;;6.91;100.00;91716.66;5072941;28;20072;-76
2024/02/12 04:27:04;;;;;;;22.70;4.93;;;;;;;7.00;100.00;91697.47;5077618;28;20496;-75
2024/02/12 04:29:31;;;;;;;19.45;5.20;;;;;;;7.25;100.00;91721.16;5076248;28;20059;-75
2024/02/12 04:31:58;;;;;;;15.05;3.25;;;;;;;7.10;100.00;91712.19;5073350;28;20051;-77
2024/02/12 04:34:25;;;;;;;18.85;3.03;;;;;;;6.80;100.00;91701.13;5077600;28;20108;-77
2024/02/12 04:36:55;;;;;;;15.52;3.78;;;;;;;6.89;100.00;91716.88;5070850;28;20052;-76
2024/02/12 04:39:23;;;;;;;17.27;2.78;;;;;;;7.28;100.00;91720.69;5072640;28;20044;-76
2024/02/12 04:41:51;;;;;;;19.25;4.50;;;;;;;7.42;100.00;91724.56;5075666;28;20067;-76
2024/02/12 04:44:20;;;;;;;23.10;7.18;;;;;;;7.44;100.00;91726.88;5069376;28;20060;-76
2024/02/12 04:46:48;;;;;;;25.50;8.60;;;;;;;7.48;100.00;91723.66;5078138;28;20063;-76
2024/02/12 04:49:15;;;;;;;31.40;9.68;;;;;;;7.46;100.00;91730.75;5072442;28;20503;-76
2024/02/12 04:51:42;;;;;;;27.27;9.63;;;;;;;7.36;100.00;91733.09;5072771;28;20080;-76
2024/02/12 04:54:10;;;;;;;23.38;7.47;;;;;;;7.25;100.00;91710.94;5071401;28;20041;-76
2024/02/12 04:56:37;;;;;;;31.25;11.15;;;;;;;7.28;100.00;91721.50;5075455;28;20052;-76
2024/02/12 04:59:11;;;;;;;21.50;6.03;;;;;;;7.13;100.00;91723.75;5073922;28;20052;-75
2024/02/12 05:01:39;;;;;;;27.65;8.32;;;;;;;7.18;100.00;91718.72;5070407;28;20045;-76
2024/02/12 05:04:06;;;;;;;19.98;7.15;;;;;;;7.24;100.00;91717.81;5075078;28;20059;-76
2024/02/12 05:06:33;;;;;;;15.27;5.82;;;;;;;7.28;100.00;91730.91;5071356;28;20043;-76
2024/02/12 05:09:00;;;;;;;16.58;6.57;;;;;;;7.33;100.00;91728.47;5072521;28;20377;-76
2024/02/12 05:11:28;;;;;;;27.48;9.02;;;;;;;7.38;100.00;91738.00;5073132;28;20516;-75
2024/02/12 05:13:56;;;;;;;35.60;12.93;;;;;;;7.41;100.00;91740.88;5080636;28;20056;-76
2024/02/12 05:16:29;;;;;;;23.90;8.70;;;;;;;7.44;100.00;91734.53;5072575;28;20143;-76
2024/02/12 05:24:27;;;;;;;15.00;3.70;;;;;;;7.64;100.00;91731.56;5072111;28;20051;-76
2024/02/12 05:26:54;;;;;;;16.45;4.30;;;;;;;7.80;100.00;91752.31;5076928;28;20052;-76
2024/02/12 05:29:21;;;;;;;13.93;3.42;;;;;;;7.78;100.00;91752.53;5074368;28;20045;-76
2024/02/12 05:31:50;;;;;;;14.40;4.03;;;;;;;7.82;100.00;91758.00;5075450;28;20059;-76
2024/02/12 05:34:20;;;;;;;21.58;7.30;;;;;;;7.82;100.00;91758.00;5069769;28;20055;-76
2024/02/12 05:36:47;;;;;;;24.00;9.50;;;;;;;7.83;100.00;91755.19;5073879;28;20055;-76
2024/02/12 05:39:16;;;;;;;22.17;7.97;;;;;;;7.81;100.00;91752.09;5070748;28;20045;-76
2024/02/12 05:41:43;;;;;;;18.63;8.35;;;;;;;7.84;100.00;91743.19;5068025;28;20424;-76
2024/02/12 05:44:10;;;;;;;24.23;8.55;;;;;;;7.78;100.00;91737.19;5082139;28;20044;-76
2024/02/12 05:46:37;;;;;;;19.25;7.13;;;;;;;7.78;100.00;91744.88;5071404;28;20048;-76
2024/02/12 05:49:06;;;;;;;23.55;8.43;;;;;;;7.77;100.00;91748.44;5068158;28;20045;-76
2024/02/12 05:51:34;;;;;;;18.98;8.70;;;;;;;7.69;100.00;91748.81;5072111;28;20070;-76
2024/02/12 05:54:02;;;;;;;27.27;8.45;;;;;;;7.60;100.00;91738.16;5068845;28;20052;-75
2024/02/12 05:56:30;;;;;;;18.27;8.10;;;;;;;7.61;100.00;91745.63;5071938;28;20054;-75
2024/02/12 05:58:57;;;;;;;17.90;8.02;;;;;;;7.64;100.00;91758.94;5068773;28;20052;-74
2024/02/12 06:01:25;;;;;;;19.83;7.47;;;;;;;7.60;100.00;91756.81;5069399;28;20040;-74
2024/02/12 06:03:52;;;;;;;28.17;9.82;;;;;;;7.62;100.00;91759.94;5070695;28;20545;-74
2024/02/12 06:06:20;;;;;;;23.27;10.50;;;;;;;7.57;100.00;91757.28;5068758;28;20057;-74
2024/02/12 06:08:47;;;;;;;24.02;10.50;;;;;;;7.57;100.00;91751.38;5077149;28;20044;-74
2024/02/12 06:11:14;;;;;;;21.48;9.30;;;;;;;7.54;100.00;91750.06;5072190;28;20060;-73
2024/02/12 06:13:42;;;;;;;28.65;10.45;;;;;;;7.49;100.00;91749.97;5066631;28;20048;-74
2024/02/12 06:16:09;;;;;;;21.75;8.60;;;;;;;7.48;100.00;91756.09;5073563;28;20044;-71
2024/02/12 06:18:36;;;;;;;19.50;8.02;;;;;;;7.38;100.00;91751.56;5074481;28;20063;-71
2024/02/12 06:21:03;;;;;;;22.83;8.85;;;;;;;7.42;100.00;91746.78;5069681;28;20052;-71
2024/02/12 06:23:32;;;;;;;25.70;8.15;;;;;;;7.32;100.00;91724.38;5070075;28;20416;-71
2024/02/12 06:25:59;;;;;;;19.20;9.50;;;;;;;7.58;100.00;91760.59;5067763;28;20044;-73
2024/02/12 06:28:26;;;;;;;19.52;7.80;;;;;;;7.60;100.00;91753.50;5069819;28;20127;-74
2024/02/12 06:30:53;;;;;;;18.30;7.90;;;;;;;7.48;100.00;91735.63;5070134;28;20049;-73
2024/02/12 06:33:20;;;;;;;25.80;6.75;;;;;;;7.64;100.00;91752.03;5072960;28;20049;-73
2024/02/12 06:35:56;;;;;;;16.50;6.20;;;;;;;7.59;100.00;91744.28;5079139;28;20046;-73
2024/02/12 06:38:23;;;;;;;20.73;8.15;;;;;;;7.56;100.00;91739.63;5075685;28;20086;-73
2024/02/12 06:40:52;;;;;;;22.30;9.95;;;;;;;7.58;100.00;91737.59;5078819;28;20056;-74
2024/02/12 06:43:19;;;;;;;27.67;10.88;;;;;;;7.53;100.00;91740.06;5078643;28;20171;-74
2024/02/12 06:45:46;;;;;;;28.38;11.48;;;;;;;7.49;100.00;91730.31;5074545;28;20058;-74
2024/02/12 06:48:13;;;;;;;26.63;11.98;;;;;;;7.49;100.00;91724.41;5086321;28;20148;-74
2024/02/12 06:50:39;;;;;;;22.13;9.05;;;;;;;7.40;100.00;91716.34;5081738;28;20051;-74
2024/02/12 06:53:06;;;;;;;23.35;9.15;;;;;;;7.38;100.00;91723.47;5075830;28;20056;-74
2024/02/12 06:55:34;;;;;;;19.45;8.85;;;;;;;7.40;100.00;91723.25;5078392;28;20044;-74
2024/02/12 06:58:02;;;;;;;24.98;9.70;;;;;;;7.37;100.00;91727.03;5074919;28;20137;-74
2024/02/12 07:00:29;;;;;;;22.30;10.57;;;;;;;7.47;100.00;91729.78;5075533;28;20071;-74
2024/02/12 07:02:56;;;;;;;21.58;9.65;;;;;;;7.30;100.00;91693.94;5081840;28;20097;-74
2024/02/12 07:05:25;;;;;;;18.23;8.07;;;;;;;7.66;100.00;91724.47;5078801;28;20056;-74
2024/02/12 07:07:53;;;;;;;13.57;4.70;;;;;;;7.67;100.00;91732.91;5076125;28;20074;-74
2024/02/12 07:10:23;;;;;;;11.77;3.17;;;;;;;7.72;100.00;91736.34;5075255;28;20048;-74
2024/02/12 07:12:50;;;;;;;10.18;3.78;;;;;;;7.68;100.00;91737.78;5074983;28;20984;-74
2024/02/12 07:15:18;;;;;;;13.95;4.38;;;;;;;7.79;100.00;91736.22;5080026;28;20044;-74
2024/02/12 07:17:47;;;;;;;6.88;2.83;;;;;;;7.77;100.00;91742.56;5076667;28;20047;-75
2024/02/12 07:20:23;;;;;;;13.93;5.30;;;;;;;7.91;100.00;91745.63;5080116;28;20542;-74
2024/02/12 07:22:52;;;;;;;15.98;6.40;;;;;;;7.91;100.00;91746.38;5072864;28;20048;-74
2024/02/12 07:25:19;;;;;;;21.75;9.38;;;;;;;7.97;100.00;91742.91;5085172;28;20044;-74
2024/02/12 07:27:46;;;;;;;11.95;4.53;;;;;;;7.95;100.00;91751.78;5081087;28;20048;-74
2024/02/12 07:30:14;;;;;;;9.52;3.03;;;;;;;8.02;100.00;91749.91;5074384;28;20040;-74
2024/02/12 07:32:42;;;;;;;9.50;3.22;;;;;;;7.90;100.00;91755.06;5079007;28;20142;-74
2024/02/12 07:35:09;;;;;;;10.18;3.90;;;;;;;7.93;100.00;91754.59;5075060;28;20045;-74
2024/02/12 07:37:38;;;;;;;23.00;8.93;;;;;;;7.95;100.00;91754.34;5076287;28;20067;-74
2024/02/12 07:40:10;;;;;;;13.85;5.78;;;;;;;7.93;100.00;91751.25;5079225;28;20048;-74
2024/02/12 07:42:37;;;;;;;14.77;5.40;;;;;;;8.03;100.00;91756.56;5076791;28;20040;-74
2024/02/12 07:45:07;;;;;;;13.52;4.82;;;;;;;8.05;100.00;91764.75;5081394;28;20635;-74
2024/02/12 07:47:34;;;;;;;26.20;11.95;;;;;;;7.97;100.00;91752.38;5074149;28;20044;-74
2024/02/12 07:50:05;;;;;;;9.00;3.25;;;;;;;8.14;100.00;91775.41;5069550;28;20052;-74
2024/02/12 07:52:32;;;;;;;5.95;2.45;;;;;;;8.05;100.00;91777.56;5069548;28;20501;-74
2024/02/12 07:54:59;;;;;;;9.45;4.10;;;;;;;8.19;100.00;91779.84;5075906;28;20075;-74
2024/02/12 07:57:26;;;;;;;8.05;2.75;;;;;;;7.97;100.00;91776.13;5074741;28;20404;-74
2024/02/12 07:59:53;;;;;;;6.70;1.65;;;;;;;8.13;100.00;91781.53;5073275;28;20044;-74
2024/02/12 08:02:20;;;;;;;11.18;6.70;;;;;;;8.18;100.00;91781.63;5074334;28;20050;-74
2024/02/12 08:04:47;;;;;;;8.20;3.10;;;;;;;8.25;100.00;91786.59;5070143;28;20060;-74
2024/02/12 08:07:15;;;;;;;5.50;2.00;;;;;;;8.27;100.00;91790.47;5070145;28;20050;-73
2024/02/12 08:09:42;;;;;;;5.63;2.20;;;;;;;8.36;100.00;91792.66;5076086;28;20044;-73
2024/02/12 08:12:10;;;;;;;7.07;2.53;;;;;;;8.38;100.00;91798.31;5078175;28;20135;-74
2024/02/12 08:14:40;;;;;;;9.07;3.20;;;;;;;8.48;100.00;91807.94;5070935;28;20049;-73
2024/02/12 08:17:07;;;;;;;4.70;2.10;;;;;;;8.26;100.00;91809.38;5079068;28;21195;-73
2024/02/12 08:19:34;;;;;;;7.05;2.40;;;;;;;8.09;100.00;91783.75;5081958;28;20045;-74
2024/02/12 08:22:02;;;;;;;8.48;2.67;;;;;;;8.41;100.00;91811.44;5072231;28;20504;-74
2024/02/12 08:24:30;;;;;;;5.80;2.22;;;;;;;8.45;100.00;91816.06;5071417;28;20048;-74
2024/02/12 08:26:57;;;;;;;3.05;1.30;;;;;;;8.42;100.00;91830.88;5071738;28;20135;-74
2024/02/12 08:29:24;;;;;;;5.53;2.10;;;;;;;8.60;100.00;91830.94;5075269;28;20047;-74
2024/02/12 08:31:51;;;;;;;4.63;2.20;;;;;;;8.43;100.00;91824.00;5081152;28;20037;-74
2024/02/12 08:34:18;;;;;;;7.43;2.55;;;;;;;8.45;100.00;91831.41;5070855;28;20056;-74
2024/02/12 08:36:44;;;;;;;7.93;2.45;;;;;;;8.51;100.00;91827.94;5070111;28;20044;-74
2024/02/12 08:39:13;;;;;;;6.97;2.65;;;;;;;8.59;100.00;91834.50;5077550;28;20040;-74
2024/02/12 08:41:42;;;;;;;5.15;2.35;;;;;;;8.68;100.00;91843.34;5075882;28;20048;-74
2024/02/12 08:44:09;;;;;;;5.80;1.85;;;;;;;8.66;100.00;91823.09;5076206;28;20048;-74
2024/02/12 08:46:36;;;;;;;7.63;1.90;;;;;;;8.90;100.00;91840.09;5076186;28;20618;-74
2024/02/12 08:49:04;;;;;;;6.90;2.15;;;;;;;8.86;100.00;91849.25;5072602;28;20072;-74
2024/02/12 08:51:31;;;;;;;9.23;2.15;;;;;;;8.95;100.00;91845.31;5069223;28;20412;-74
2024/02/12 08:53:58;;;;;;;5.20;2.13;;;;;;;9.02;100.00;91840.03;5077858;28;20055;-73
2024/02/12 08:56:28;;;;;;;4.22;1.75;;;;;;;8.94;100.00;91841.22;5072084;28;20491;-74
2024/02/12 08:58:57;;;;;;;6.10;1.60;;;;;;;9.14;100.00;91839.94;5074884;28;20048;-74
2024/02/12 09:01:23;;;;;;;6.88;1.88;;;;;;;9.24;100.00;91845.22;5074782;28;20075;-73
2024/02/12 09:03:50;;;;;;;4.47;1.50;;;;;;;9.35;100.00;91841.78;5071714;28;20146;-74
2024/02/12 09:06:18;;;;;;;5.85;1.35;;;;;;;9.36;100.00;91838.19;5072712;28;20080;-74
2024/02/12 09:08:45;;;;;;;6.80;1.92;;;;;;;9.40;100.00;91835.94;5069744;28;20056;-74
2024/02/12 09:11:13;;;;;;;4.38;1.50;;;;;;;9.25;100.00;91838.31;5072267;28;20052;-73
2024/02/12 09:13:42;;;;;;;8.23;1.55;;;;;;;9.40;100.00;91837.75;5071429;28;20109;-73
2024/02/12 09:16:10;;;;;;;5.53;1.85;;;;;;;9.41;100.00;91832.38;5070642;28;20045;-73
2024/02/12 09:18:38;;;;;;;8.27;1.40;;;;;;;9.37;100.00;91836.44;5069814;28;20048;-73
2024/02/12 09:21:05;;;;;;;9.32;2.05;;;;;;;9.28;100.00;91836.06;5068427;28;20045;-73
2024/02/12 09:23:33;;;;;;;6.53;1.83;;;;;;;9.16;100.00;91822.56;5071181;28;20048;-73
2024/02/12 09:26:00;;;;;;;7.95;2.35;;;;;;;9.12;100.00;91824.78;5073844;28;20496;-73
2024/02/12 09:28:27;;;;;;;6.50;1.63;;;;;;;9.21;100.00;91831.09;5071692;28;20041;-73
2024/02/12 09:30:54;;;;;;;7.80;1.98;;;;;;;9.28;100.00;91833.50;5070347;28;20055;-73
2024/02/12 09:33:22;;;;;;;7.97;2.13;;;;;;;9.31;100.00;91822.75;5069712;28;20477;-73
2024/02/12 09:35:49;;;;;;;8.05;1.90;;;;;;;9.46;100.00;91824.75;5068606;28;20041;-73
2024/02/12 09:38:16;;;;;;;8.40;2.15;;;;;;;9.46;100.00;91823.97;5078052;28;20048;-73
2024/02/12 09:40:44;;;;;;;8.07;1.60;;;;;;;9.47;100.00;91823.75;5070638;28;20044;-73
2024/02/12 09:43:13;;;;;;;9.30;1.52;;;;;;;9.48;100.00;91817.59;5079294;28;20143;-73
2024/02/12 09:45:44;;;;;;;11.27;2.28;;;;;;;9.44;100.00;91796.03;5072331;28;20070;-73
2024/02/12 09:48:12;;;;;;;4.80;2.28;;;;;;;9.53;100.00;91821.25;5070932;28;20063;-73
2024/02/12 09:50:44;;;;;;;13.10;2.80;;;;;;;9.59;100.00;91804.91;5067730;28;20040;-73
2024/02/12 09:53:15;;;;;;;8.95;2.70;;;;;;;9.71;100.00;91799.66;5073775;28;20048;-73
2024/02/12 09:55:46;;;;;;;7.25;2.53;;;;;;;9.82;100.00;91793.63;5074620;28;20052;-73
2024/02/12 09:58:15;;;;;;;9.80;2.53;;;;;;;9.79;100.00;91785.66;5070865;28;20048;-73
2024/02/12 10:00:43;;;;;;;8.35;2.63;;;;;;;9.85;100.00;91800.84;5070594;28;20044;-73
2024/02/12 10:03:11;;;;;;;7.72;2.60;;;;;;;10.10;100.00;91798.81;5069636;28;20044;-73
2024/02/12 10:05:42;;;;;;;11.23;2.28;;;;;;;9.91;100.00;91788.88;5074864;28;20542;-73
2024/02/12 10:08:20;;;;;;;9.88;4.07;;;;;;;10.02;100.00;91797.44;5070356;28;20122;-73
2024/02/12 10:10:47;;;;;;;6.07;1.90;;;;;;;10.09;100.00;91794.69;5073369;28;20040;-73
2024/02/12 10:13:15;;;;;;;11.75;2.88;;;;;;;10.23;100.00;91800.22;5069102;28;20130;-74
2024/02/12 10:15:42;;;;;;;8.82;2.40;;;;;;;10.32;100.00;91803.13;5072650;28;20052;-73
2024/02/12 10:18:11;;;;;;;9.77;1.80;;;;;;;10.31;100.00;91789.50;5069242;28;20049;-73
2024/02/12 10:20:39;;;;;;;5.13;1.25;;;;;;;10.33;99.93;91791.84;5078243;28;20040;-73
2024/02/12 10:23:09;;;;;;;5.38;1.88;;;;;;;10.47;99.99;91799.94;5073929;28;20052;-74
2024/02/12 10:25:40;;;;;;;7.45;1.58;;;;;;;10.48;98.97;91792.00;5068335;28;20044;-73
2024/02/12 10:28:07;;;;;;;4.43;1.27;;;;;;;10.44;98.48;91783.22;5073726;28;20048;-73
2024/02/12 10:30:35;;;;;;;7.03;1.75;;;;;;;10.56;98.99;91783.09;5071053;28;20795;-73
2024/02/12 10:33:05;;;;;;;8.35;2.05;;;;;;;10.78;98.46;91797.63;5067715;28;20051;-73
2024/02/12 10:35:36;;;;;;;6.07;1.42;;;;;;;10.92;97.74;91798.00;5068693;28;20040;-73
2024/02/12 10:38:04;;;;;;;6.82;1.85;;;;;;;10.99;96.34;91793.41;5076158;28;20488;-73
2024/02/12 10:40:35;;;;;;;8.70;1.90;;;;;;;11.03;95.65;91781.63;5073314;28;20040;-73
2024/02/12 10:43:05;;;;;;;12.75;1.90;;;;;;;11.15;96.50;91780.66;5073129;28;20044;-73
2024/02/12 10:45:32;;;;;;;9.98;1.33;;;;;;;11.08;96.53;91773.16;5075887;28;20048;-73
2024/02/12 10:48:02;;;;;;;10.90;1.60;;;;;;;11.23;98.05;91764.75;5068615;28;20525;-73
2024/02/12 10:50:32;;;;;;;7.80;1.70;;;;;;;11.46;96.04;91757.66;5071178;28;20910;-73
2024/02/12 10:53:01;;;;;;;7.95;1.77;;;;;;;11.41;96.66;91758.44;5070399;28;20048;-73
2024/02/12 10:55:29;;;;;;;9.77;1.67;;;;;;;11.54;94.21;91767.50;5069002;28;20048;-73
2024/02/12 10:57:57;;;;;;;7.78;1.90;;;;;;;11.65;94.75;91754.66;5069571;28;20055;-73
2024/02/12 11:00:25;;;;;;;9.27;1.75;;;;;;;11.71;93.13;91740.81;5067513;28;20053;-73
2024/02/12 11:02:56;;;;;;;8.27;1.92;;;;;;;11.86;93.56;91742.66;5079451;28;20071;-73
2024/02/12 11:05:23;;;;;;;6.20;1.40;;;;;;;12.04;92.36;91736.28;5069231;28;20128;-73
2024/02/12 11:08:01;;;;;;;8.73;1.90;;;;;;;12.24;91.80;91732.97;5068842;28;20152;-73
2024/02/12 11:10:34;;;;;;;10.73;1.55;;;;;;;12.28;89.89;91723.69;5070365;28;20080;-74
2024/02/12 11:13:05;;;;;;;9.63;1.88;;;;;;;12.53;89.75;91729.88;5071584;28;20052;-73
2024/02/12 11:15:32;;;;;;;13.85;2.63;;;;;;;12.75;89.38;91731.41;5071965;28;20056;-74
2024/02/12 11:18:12;;;;;;;7.00;1.38;;;;;;;12.91;86.26;91727.00;5071066;28;20504;-74
2024/02/12 11:20:49;;;;;;;6.55;1.75;;;;;;;12.57;84.89;91717.25;5070072;28;20504;-74
2024/02/12 11:23:23;;;;;;;10.77;1.90;;;;;;;12.52;85.89;91720.63;5070904;28;20146;-74
2024/02/12 11:25:50;;;;;;;8.30;2.67;;;;;;;12.40;85.84;91722.66;5071369;28;20058;-74
2024/02/12 11:28:18;;;;;;;7.25;1.83;;;;;;;12.27;87.58;91716.25;5072553;28;20049;-73
2024/02/12 11:30:48;;;;;;;7.90;2.63;;;;;;;12.48;89.27;91722.16;5073784;28;20044;-74
2024/02/12 11:33:15;;;;;;;12.30;3.45;;;;;;;12.59;88.76;91714.44;5072371;28;20906;-74
2024/02/12 11:35:42;;;;;;;14.45;2.10;;;;;;;12.56;87.40;91719.06;5070619;28;20052;-74
2024/02/12 11:38:13;;;;;;;7.15;1.67;;;;;;;12.64;87.47;91711.84;5075478;28;20046;-74
2024/02/12 11:40:40;;;;;;;7.22;2.17;;;;;;;12.64;85.99;91712.59;5071773;28;20049;-74
2024/02/12 11:43:08;;;;;;;7.30;1.92;;;;;;;12.63;85.95;91708.50;5072834;28;20044;-74
2024/02/12 11:45:36;;;;;;;8.43;2.20;;;;;;;12.62;86.03;91701.00;5075531;28;20044;-71
2024/02/12 11:48:10;;;;;;;7.15;1.60;;;;;;;12.39;87.21;91697.94;5075458;28;20138;-71
2024/02/12 11:50:38;;;;;;;10.40;1.50;;;;;;;12.13;87.46;91695.38;5071293;28;20382;-71